Time;durP1;ratioP1;P1;durP2;ratioP2;P2;SDS_P1;SDS_P2;PMS_P1;PMS_P2;Temp;Humidity;BMP_temperature;BMP_pressure;BME280_temperature;BME280_humidity;BME280_pressure;Samples;Min_cycle;Max_cycle;Signal;HPM_P1;HPM_P2
2022/12/19 00:01:26;;;;;;;36.80;20.10;;;1.10;99.90;;;;;;5008706;28;20841;-52
2022/12/19 00:03:56;;;;;;;36.05;21.10;;;1.20;99.90;;;;;;5008358;28;20428;-55
2022/12/19 00:06:23;;;;;;;37.53;22.00;;;1.10;99.90;;;;;;5008302;28;20883;-56
2022/12/19 00:08:52;;;;;;;36.38;21.60;;;1.10;99.90;;;;;;5008465;28;20416;-54
2022/12/19 00:11:21;;;;;;;37.00;21.30;;;1.20;99.90;;;;;;5008599;28;20773;-57
2022/12/19 00:13:48;;;;;;;38.28;21.10;;;1.20;99.90;;;;;;5008401;28;20421;-54
2022/12/19 00:16:17;;;;;;;38.00;21.38;;;1.30;99.90;;;;;;5008233;28;20458;-57
2022/12/19 00:18:45;;;;;;;37.10;20.95;;;1.20;99.90;;;;;;5008077;28;20915;-56
2022/12/19 00:21:19;;;;;;;36.95;20.20;;;1.20;99.90;;;;;;5008239;28;20447;-57
2022/12/19 00:23:46;;;;;;;36.10;20.67;;;1.30;99.90;;;;;;5008200;28;20421;-54
2022/12/19 00:26:15;;;;;;;37.10;21.73;;;1.30;99.90;;;;;;5007897;28;20833;-55
2022/12/19 00:28:43;;;;;;;34.95;21.63;;;1.40;99.90;;;;;;5008026;28;20474;-55
2022/12/19 00:31:10;;;;;;;39.55;21.25;;;1.30;99.90;;;;;;5008040;28;20470;-57
2022/12/19 00:33:37;;;;;;;38.38;21.15;;;1.30;99.90;;;;;;5008178;28;20421;-56
2022/12/19 00:36:05;;;;;;;35.40;20.20;;;1.30;99.90;;;;;;5007962;28;20490;-57
2022/12/19 00:38:33;;;;;;;35.15;20.60;;;1.30;99.90;;;;;;5008105;28;20549;-57
2022/12/19 00:41:07;;;;;;;36.47;20.77;;;1.40;99.90;;;;;;5008124;28;20803;-57
2022/12/19 00:43:33;;;;;;;34.05;19.73;;;1.40;99.90;;;;;;5008033;28;20899;-57
2022/12/19 00:46:02;;;;;;;36.03;20.33;;;1.30;99.90;;;;;;5007663;28;20842;-56
2022/12/19 00:48:28;;;;;;;37.30;21.83;;;1.40;99.90;;;;;;5008344;28;20420;-52
2022/12/19 00:50:59;;;;;;;35.63;19.70;;;1.40;99.90;;;;;;5007863;28;20417;-55
2022/12/19 00:53:26;;;;;;;38.87;21.87;;;1.40;99.90;;;;;;5008003;28;20424;-55
2022/12/19 00:55:54;;;;;;;38.88;21.80;;;1.50;99.90;;;;;;5007622;28;20486;-57
2022/12/19 00:58:20;;;;;;;37.45;19.35;;;1.40;99.90;;;;;;5007585;28;20620;-57
2022/12/19 01:00:47;;;;;;;39.55;21.77;;;1.50;99.90;;;;;;5010317;28;20413;-58
2022/12/19 01:03:14;;;;;;;37.03;20.50;;;1.60;99.90;;;;;;5011268;28;20417;-57
2022/12/19 01:05:41;;;;;;;40.17;22.50;;;1.60;99.90;;;;;;5011367;28;20461;-57
2022/12/19 01:08:07;;;;;;;41.60;22.23;;;1.60;99.90;;;;;;5010994;28;20783;-57
2022/12/19 01:10:34;;;;;;;38.75;22.15;;;1.70;99.90;;;;;;5011068;28;20446;-57
2022/12/19 01:13:01;;;;;;;40.63;21.20;;;1.70;99.90;;;;;;5011262;28;20478;-58
2022/12/19 01:15:27;;;;;;;43.65;23.67;;;1.70;99.90;;;;;;5011502;28;20417;-57
2022/12/19 01:17:54;;;;;;;38.97;21.63;;;1.70;99.90;;;;;;5010852;28;20416;-57
2022/12/19 01:20:21;;;;;;;41.78;22.38;;;1.70;99.90;;;;;;5011004;28;20953;-57
2022/12/19 01:22:48;;;;;;;38.33;22.02;;;1.70;99.90;;;;;;5011108;28;20416;-56
2022/12/19 01:25:15;;;;;;;40.13;21.88;;;1.80;99.90;;;;;;5010888;28;20459;-54
2022/12/19 01:27:42;;;;;;;38.20;21.92;;;1.90;99.90;;;;;;5010518;28;20482;-55
2022/12/19 01:30:12;;;;;;;36.97;21.52;;;1.90;99.90;;;;;;5010586;28;20417;-58
2022/12/19 01:32:39;;;;;;;30.02;16.52;;;1.90;99.90;;;;;;5010730;28;20907;-57
2022/12/19 01:35:06;;;;;;;34.30;19.25;;;2.00;99.90;;;;;;5010846;28;20416;-56
2022/12/19 01:37:33;;;;;;;33.00;18.98;;;2.10;99.90;;;;;;5010252;28;20840;-58
2022/12/19 01:40:00;;;;;;;39.83;21.60;;;2.10;99.90;;;;;;5010691;28;20425;-58
2022/12/19 01:42:33;;;;;;;37.08;21.33;;;2.10;99.90;;;;;;5010674;28;20833;-56
2022/12/19 01:45:19;;;;;;;38.42;21.58;;;2.10;99.90;;;;;;5010365;28;20419;-57
2022/12/19 01:47:51;;;;;;;43.65;22.38;;;2.00;99.90;;;;;;5010407;28;20422;-53
2022/12/19 01:50:23;;;;;;;41.72;23.13;;;1.90;99.90;;;;;;5010479;28;20948;-53
2022/12/19 01:52:51;;;;;;;37.53;19.58;;;1.90;99.90;;;;;;5010632;28;20482;-55
2022/12/19 01:55:19;;;;;;;41.47;23.85;;;2.00;99.90;;;;;;5010237;28;20911;-55
2022/12/19 01:57:46;;;;;;;42.05;22.77;;;1.90;99.90;;;;;;5009919;28;20486;-57
2022/12/19 02:00:14;;;;;;;42.03;22.83;;;2.00;99.90;;;;;;5010278;28;20420;-56
2022/12/19 02:02:44;;;;;;;45.90;24.92;;;2.00;99.90;;;;;;5010164;28;20417;-52
2022/12/19 02:05:12;;;;;;;40.50;22.83;;;1.90;99.90;;;;;;5010113;28;20417;-56
2022/12/19 02:07:42;;;;;;;42.08;23.98;;;2.00;99.90;;;;;;5010067;28;20443;-53
2022/12/19 02:10:08;;;;;;;43.80;24.50;;;2.00;99.90;;;;;;5010150;28;20421;-55
2022/12/19 02:12:37;;;;;;;45.97;25.90;;;2.00;99.90;;;;;;5009077;28;20424;-55
2022/12/19 02:15:06;;;;;;;46.22;23.58;;;2.00;99.90;;;;;;5010001;28;20425;-55
2022/12/19 02:17:43;;;;;;;42.73;22.87;;;2.10;99.90;;;;;;5009553;28;20509;-56
2022/12/19 02:20:37;;;;;;;41.88;23.42;;;2.10;99.90;;;;;;5010312;28;20454;-54
2022/12/19 02:23:27;;;;;;;43.10;23.93;;;2.20;99.90;;;;;;5009880;28;20447;-54
2022/12/19 02:26:14;;;;;;;42.30;22.75;;;2.20;99.90;;;;;;5009703;28;20421;-52
2022/12/19 02:29:07;;;;;;;44.95;24.48;;;2.30;99.90;;;;;;5010028;28;20825;-56
2022/12/19 02:31:39;;;;;;;39.35;21.67;;;2.30;99.90;;;;;;5009795;28;20421;-56
2022/12/19 02:34:16;;;;;;;41.88;23.48;;;2.30;99.90;;;;;;5009812;28;20489;-56
2022/12/19 02:36:48;;;;;;;41.63;23.00;;;2.30;99.90;;;;;;5009413;28;20432;-53
2022/12/19 02:39:18;;;;;;;32.58;17.98;;;2.40;99.90;;;;;;5010070;28;20421;-52
2022/12/19 02:41:47;;;;;;;39.40;21.75;;;2.50;99.90;;;;;;5009877;28;20445;-56
2022/12/19 02:44:19;;;;;;;40.40;22.92;;;2.40;99.90;;;;;;5009539;28;20451;-53
2022/12/19 02:46:50;;;;;;;38.97;23.23;;;2.40;99.90;;;;;;5009572;28;20417;-55
2022/12/19 02:49:16;;;;;;;37.10;20.53;;;2.50;99.90;;;;;;5009583;28;20478;-56
2022/12/19 02:51:43;;;;;;;36.25;20.80;;;2.60;99.90;;;;;;5009843;28;20417;-51
2022/12/19 02:54:10;;;;;;;35.60;21.02;;;2.70;99.90;;;;;;5009678;28;20421;-54
2022/12/19 02:56:46;;;;;;;38.40;22.00;;;2.70;99.90;;;;;;5009181;28;20433;-54
2022/12/19 02:59:25;;;;;;;34.67;20.60;;;2.70;99.90;;;;;;4990030;28;20426;-52
2022/12/19 03:01:57;;;;;;;34.70;21.07;;;2.70;99.90;;;;;;4989943;28;20945;-49
2022/12/19 03:04:34;;;;;;;33.80;20.97;;;2.80;99.90;;;;;;4989909;28;20944;-54
2022/12/19 03:07:08;;;;;;;32.13;19.23;;;2.80;99.90;;;;;;4989538;28;20418;-52
2022/12/19 03:09:44;;;;;;;33.25;19.30;;;2.90;99.90;;;;;;4989934;28;20488;-57
2022/12/19 03:12:21;;;;;;;32.25;19.77;;;3.00;99.90;;;;;;4989775;28;20429;-53
2022/12/19 03:14:49;;;;;;;34.38;20.60;;;3.00;99.90;;;;;;4989679;28;20422;-52
2022/12/19 03:17:18;;;;;;;32.97;20.73;;;3.00;99.90;;;;;;4989688;28;20427;-51
2022/12/19 03:19:45;;;;;;;29.67;18.50;;;3.00;99.90;;;;;;4989634;28;20433;-55
2022/12/19 03:22:12;;;;;;;29.55;17.77;;;3.20;99.90;;;;;;4989422;28;20501;-52
2022/12/19 03:24:40;;;;;;;31.83;18.60;;;3.20;99.90;;;;;;4990472;28;20480;-53
2022/12/19 03:27:11;;;;;;;28.30;18.08;;;3.30;99.90;;;;;;5008114;28;20429;-54
2022/12/19 03:29:42;;;;;;;30.50;18.50;;;3.30;99.90;;;;;;5009187;28;20829;-54
2022/12/19 03:32:13;;;;;;;28.83;18.48;;;3.30;99.90;;;;;;5008996;28;20424;-52
2022/12/19 03:34:45;;;;;;;30.15;17.48;;;3.40;99.90;;;;;;5009015;28;20466;-52
2022/12/19 03:37:15;;;;;;;30.33;19.17;;;3.50;99.90;;;;;;5008632;28;20832;-55
2022/12/19 03:39:45;;;;;;;28.60;18.63;;;3.50;99.90;;;;;;5009011;28;20831;-57
2022/12/19 03:45:00;;;;;;;30.17;19.07;;;3.50;99.90;;;;;;5009087;28;20528;-56
2022/12/19 03:47:32;;;;;;;31.02;19.33;;;3.60;99.90;;;;;;5008472;28;20911;-54
2022/12/19 03:50:01;;;;;;;31.92;20.10;;;3.50;99.90;;;;;;5008964;28;20462;-52
2022/12/19 03:52:33;;;;;;;33.03;20.67;;;3.50;99.90;;;;;;5008978;28;20413;-53
2022/12/19 03:55:06;;;;;;;32.30;19.48;;;3.40;99.90;;;;;;5008664;28;20416;-54
2022/12/19 03:57:39;;;;;;;31.00;20.00;;;3.50;99.90;;;;;;5008174;28;20432;-57
2022/12/19 04:00:08;;;;;;;31.75;19.25;;;3.50;99.90;;;;;;5008702;28;20424;-55
2022/12/19 04:02:37;;;;;;;33.05;20.17;;;3.50;99.90;;;;;;5008727;28;20425;-52
2022/12/19 04:05:11;;;;;;;31.25;19.42;;;3.50;99.90;;;;;;5008417;28;20768;-53
2022/12/19 04:07:39;;;;;;;34.08;20.67;;;3.50;99.90;;;;;;5008339;28;20442;-55
2022/12/19 04:10:10;;;;;;;32.63;19.40;;;3.50;99.90;;;;;;5008476;28;20514;-54
2022/12/19 04:12:40;;;;;;;31.88;19.85;;;3.50;99.90;;;;;;5008597;28;20417;-55
2022/12/19 04:15:09;;;;;;;32.92;19.83;;;3.50;99.90;;;;;;5008218;28;20952;-52
2022/12/19 04:17:41;;;;;;;34.80;19.88;;;3.60;99.90;;;;;;5007950;28;20433;-51
2022/12/19 04:20:12;;;;;;;34.23;19.63;;;3.60;99.90;;;;;;5008379;28;21072;-55
2022/12/19 04:22:43;;;;;;;32.10;19.43;;;3.70;99.90;;;;;;5008288;28;20908;-55
2022/12/19 04:25:13;;;;;;;30.07;16.83;;;3.70;99.90;;;;;;5009571;28;20457;-52
2022/12/19 04:27:44;;;;;;;30.37;17.13;;;3.60;99.90;;;;;;5009630;28;20467;-53
2022/12/19 04:30:14;;;;;;;33.13;16.57;;;3.60;99.90;;;;;;5009387;28;20450;-54
2022/12/19 04:32:42;;;;;;;28.27;15.50;;;3.70;99.90;;;;;;5009395;28;20969;-51
2022/12/19 04:35:11;;;;;;;26.47;13.17;;;3.70;99.90;;;;;;5008360;28;20944;-56
2022/12/19 04:37:38;;;;;;;26.70;14.53;;;3.70;99.90;;;;;;5009130;28;20490;-57
2022/12/19 04:40:07;;;;;;;25.33;13.77;;;3.80;99.90;;;;;;5009264;28;20511;-52
2022/12/19 04:42:33;;;;;;;27.50;13.93;;;3.80;99.90;;;;;;5009232;28;21014;-54
2022/12/19 04:45:00;;;;;;;27.63;15.77;;;3.90;99.90;;;;;;5008917;28;20997;-56
2022/12/19 04:47:27;;;;;;;24.53;12.97;;;4.00;99.90;;;;;;5008875;28;20469;-54
2022/12/19 04:49:54;;;;;;;24.97;14.57;;;4.00;99.90;;;;;;5009021;28;20941;-54
2022/12/19 04:52:22;;;;;;;23.70;14.20;;;4.10;99.90;;;;;;5009022;28;20991;-53
2022/12/19 04:54:48;;;;;;;28.03;13.37;;;4.10;99.90;;;;;;5009277;28;20446;-54
2022/12/19 04:57:15;;;;;;;26.40;14.20;;;4.10;99.90;;;;;;5008390;28;20486;-56
2022/12/19 04:59:42;;;;;;;23.77;13.33;;;4.20;99.90;;;;;;5009069;28;20457;-54
2022/12/19 05:02:08;;;;;;;25.03;12.63;;;4.20;99.90;;;;;;5008996;28;20507;-49
2022/12/19 05:04:35;;;;;;;28.07;15.07;;;4.20;99.90;;;;;;5008725;28;20454;-56
2022/12/19 05:07:02;;;;;;;23.73;13.67;;;4.30;99.90;;;;;;5008810;28;20462;-55
2022/12/19 05:09:30;;;;;;;27.83;14.43;;;4.30;99.90;;;;;;5009194;28;20479;-56
2022/12/19 05:11:56;;;;;;;25.03;13.03;;;4.20;99.90;;;;;;5009096;28;20503;-53
2022/12/19 05:14:23;;;;;;;28.77;16.60;;;4.30;99.90;;;;;;5008720;28;20937;-55
2022/12/19 05:16:50;;;;;;;25.27;15.43;;;4.30;99.90;;;;;;5008420;28;20462;-57
2022/12/19 05:19:16;;;;;;;26.37;15.97;;;4.30;99.90;;;;;;5008457;28;20450;-57
2022/12/19 05:21:43;;;;;;;28.17;15.67;;;4.30;99.90;;;;;;5008937;28;20499;-56
2022/12/19 05:24:09;;;;;;;30.03;15.60;;;4.30;99.90;;;;;;5008819;28;20496;-56
2022/12/19 05:26:37;;;;;;;31.47;15.13;;;4.40;99.90;;;;;;5008507;28;20499;-57
2022/12/19 05:29:04;;;;;;;28.33;15.73;;;4.40;99.90;;;;;;5008622;28;20450;-56
2022/12/19 05:31:31;;;;;;;35.40;20.90;;;4.40;99.90;;;;;;5007331;28;20462;-56
2022/12/19 05:33:58;;;;;;;34.00;21.20;;;4.40;99.90;;;;;;5007721;28;20423;-54
2022/12/19 05:36:24;;;;;;;36.67;21.92;;;4.40;99.90;;;;;;5007189;28;20470;-54
2022/12/19 05:38:51;;;;;;;35.88;22.08;;;4.40;99.90;;;;;;5007448;28;20433;-52
2022/12/19 05:41:19;;;;;;;33.90;20.65;;;4.40;99.90;;;;;;5007376;28;20466;-57
2022/12/19 05:43:50;;;;;;;36.00;20.88;;;4.40;99.90;;;;;;5007233;28;20509;-56
2022/12/19 05:46:17;;;;;;;34.42;20.48;;;4.50;99.90;;;;;;5008626;28;20434;-54
2022/12/19 05:48:44;;;;;;;35.95;21.95;;;4.50;99.90;;;;;;5010842;28;20417;-56
2022/12/19 05:51:10;;;;;;;37.80;23.02;;;4.50;99.90;;;;;;5010813;28;20422;-55
2022/12/19 05:53:38;;;;;;;36.60;21.77;;;4.50;99.90;;;;;;5010771;28;20949;-56
2022/12/19 05:56:07;;;;;;;34.90;20.83;;;4.50;99.90;;;;;;5010025;28;20473;-56
2022/12/19 05:58:34;;;;;;;35.17;21.83;;;4.50;99.90;;;;;;5010069;28;20436;-54
2022/12/19 06:01:07;;;;;;;37.75;22.35;;;4.50;99.90;;;;;;5010675;28;20473;-55
2022/12/19 06:03:34;;;;;;;37.20;23.30;;;4.50;99.90;;;;;;5010446;28;20891;-56
2022/12/19 06:06:02;;;;;;;30.08;19.77;;;4.50;99.90;;;;;;5010070;28;20422;-57
2022/12/19 06:08:29;;;;;;;33.50;21.33;;;4.60;99.90;;;;;;5008147;28;20424;-58
2022/12/19 06:10:58;;;;;;;33.40;21.47;;;4.60;99.90;;;;;;5009924;28;20988;-55
2022/12/19 06:13:25;;;;;;;34.00;21.70;;;4.70;99.90;;;;;;5009945;28;20512;-57
2022/12/19 06:15:57;;;;;;;35.72;21.35;;;4.70;99.90;;;;;;5010139;28;20477;-55
2022/12/19 06:18:25;;;;;;;35.05;21.30;;;4.80;99.90;;;;;;5009539;28;20433;-62
2022/12/19 06:20:57;;;;;;;31.23;19.65;;;4.80;99.90;;;;;;5003892;28;20440;-58
2022/12/19 06:23:23;;;;;;;31.37;19.33;;;4.80;99.90;;;;;;5004880;28;20492;-58
2022/12/19 06:25:50;;;;;;;31.75;20.20;;;4.80;99.90;;;;;;5008435;28;20416;-58
2022/12/19 06:28:17;;;;;;;31.90;20.17;;;4.90;99.90;;;;;;5009008;28;20421;-55
2022/12/19 06:30:43;;;;;;;31.52;19.42;;;4.90;99.90;;;;;;5009052;28;20420;-57
2022/12/19 06:33:10;;;;;;;31.30;19.67;;;5.00;99.90;;;;;;5009017;28;20452;-61
2022/12/19 06:35:38;;;;;;;32.63;21.75;;;4.90;99.90;;;;;;5009179;28;20489;-61
2022/12/19 06:38:05;;;;;;;32.83;17.20;;;4.90;99.90;;;;;;5009736;28;20277;-60
2022/12/19 06:43:15;;;;;;;32.45;20.05;;;4.90;99.90;;;;;;5001294;28;20404;-59
2022/12/19 06:45:42;;;;;;;33.10;19.60;;;5.00;99.90;;;;;;5009662;28;20417;-60
2022/12/19 06:48:09;;;;;;;29.27;18.90;;;5.00;99.90;;;;;;5008748;28;20421;-60
2022/12/19 06:50:38;;;;;;;30.15;19.67;;;5.10;99.90;;;;;;5009233;28;20420;-63
2022/12/19 06:53:06;;;;;;;28.88;18.33;;;5.10;99.90;;;;;;5008205;28;20433;-62
2022/12/19 06:55:35;;;;;;;32.90;19.35;;;5.10;99.90;;;;;;5008962;28;20474;-63
2022/12/19 06:58:02;;;;;;;30.85;19.60;;;5.10;99.90;;;;;;5008610;28;20478;-61
2022/12/19 07:00:29;;;;;;;32.65;19.92;;;5.20;99.90;;;;;;5010124;28;20470;-62
2022/12/19 07:02:57;;;;;;;30.45;18.15;;;5.10;99.90;;;;;;5009905;28;20424;-63
2022/12/19 07:05:24;;;;;;;27.77;17.50;;;5.20;99.90;;;;;;5008392;28;20428;-63
2022/12/19 07:07:52;;;;;;;29.33;18.50;;;5.10;99.90;;;;;;5008900;28;20821;-61
2022/12/19 07:10:20;;;;;;;27.60;18.05;;;5.20;99.90;;;;;;5009055;28;20421;-59
2022/12/19 07:12:47;;;;;;;26.95;17.45;;;5.20;99.90;;;;;;5008262;28;20787;-59
2022/12/19 07:15:13;;;;;;;28.35;18.60;;;5.20;99.90;;;;;;5008721;28;20816;-59
2022/12/19 07:17:40;;;;;;;27.38;17.88;;;5.20;99.90;;;;;;5008009;28;20432;-53
2022/12/19 07:20:08;;;;;;;28.07;17.97;;;5.20;99.90;;;;;;5008864;28;20444;-59
2022/12/19 07:22:36;;;;;;;25.65;17.40;;;5.30;99.90;;;;;;5000218;28;20428;-59
2022/12/19 07:25:04;;;;;;;26.65;16.73;;;5.40;99.90;;;;;;5008399;28;20473;-59
2022/12/19 07:27:33;;;;;;;25.40;16.27;;;5.40;99.90;;;;;;5007925;28;20788;-64
2022/12/19 07:30:00;;;;;;;24.77;16.00;;;5.50;99.90;;;;;;5008123;28;20428;-59
2022/12/19 07:32:26;;;;;;;24.65;16.88;;;5.60;99.90;;;;;;5008101;28;20482;-59
2022/12/19 07:34:53;;;;;;;23.27;15.32;;;5.60;99.90;;;;;;5008470;28;20470;-59
2022/12/19 07:37:20;;;;;;;24.23;15.82;;;5.70;99.90;;;;;;5008309;28;20417;-59
2022/12/19 07:39:47;;;;;;;22.73;15.32;;;5.70;99.90;;;;;;5008302;28;20519;-60
2022/12/19 07:42:14;;;;;;;25.20;15.60;;;5.70;99.90;;;;;;5007990;28;20501;-57
2022/12/19 07:44:41;;;;;;;23.80;16.05;;;5.80;99.90;;;;;;5008609;28;20470;-60
2022/12/19 07:47:08;;;;;;;21.65;15.35;;;5.70;99.90;;;;;;5007490;28;20429;-58
2022/12/19 07:49:35;;;;;;;23.57;15.90;;;5.80;99.90;;;;;;5006893;28;20462;-64
2022/12/19 07:52:02;;;;;;;23.55;15.45;;;5.80;99.90;;;;;;5006663;28;20420;-62
2022/12/19 07:54:28;;;;;;;22.23;15.02;;;5.90;99.90;;;;;;5007920;28;20421;-62
2022/12/19 07:56:55;;;;;;;24.77;16.60;;;5.90;99.90;;;;;;5007270;28;20489;-61
2022/12/19 07:59:22;;;;;;;22.65;14.88;;;6.00;99.90;;;;;;5008023;28;20575;-62
2022/12/19 08:01:51;;;;;;;22.85;15.20;;;5.90;99.90;;;;;;5007480;28;20421;-60
2022/12/19 08:04:17;;;;;;;22.52;15.25;;;5.90;99.90;;;;;;5007572;28;20424;-61
2022/12/19 08:06:45;;;;;;;21.83;15.13;;;6.00;99.90;;;;;;5007776;28;20420;-59
2022/12/19 08:09:12;;;;;;;21.63;15.30;;;5.90;99.90;;;;;;5007535;28;20421;-60
2022/12/19 08:11:39;;;;;;;21.30;14.90;;;5.90;99.90;;;;;;5007794;28;20478;-60
2022/12/19 08:14:05;;;;;;;24.85;14.90;;;6.00;99.90;;;;;;5007681;28;20473;-59
2022/12/19 08:16:32;;;;;;;23.25;14.85;;;6.00;99.90;;;;;;5007507;28;20561;-60
2022/12/19 08:19:00;;;;;;;21.83;14.17;;;6.00;99.90;;;;;;5007513;28;20494;-60
2022/12/19 08:21:27;;;;;;;23.40;14.95;;;6.00;99.90;;;;;;5006935;28;20470;-59
2022/12/19 08:23:53;;;;;;;21.43;14.40;;;6.00;99.90;;;;;;5008777;28;20420;-60
2022/12/19 08:26:23;;;;;;;20.63;14.57;;;6.00;99.90;;;;;;5007061;28;20459;-60
2022/12/19 08:28:51;;;;;;;20.80;14.65;;;6.00;99.90;;;;;;5007685;28;20922;-60
2022/12/19 08:31:19;;;;;;;21.65;14.07;;;6.10;99.90;;;;;;5007491;28;20963;-62
2022/12/19 08:33:46;;;;;;;20.92;14.13;;;6.20;99.90;;;;;;5007374;28;20478;-62
2022/12/19 08:36:17;;;;;;;20.15;13.98;;;6.20;99.90;;;;;;4987840;28;20505;-61
2022/12/19 08:38:43;;;;;;;20.98;13.60;;;6.20;99.90;;;;;;4987663;28;20470;-58
2022/12/19 08:41:10;;;;;;;20.05;13.75;;;6.30;99.90;;;;;;4988142;28;20480;-61
2022/12/19 08:43:37;;;;;;;19.92;13.52;;;6.40;99.90;;;;;;4988251;28;20414;-61
2022/12/19 08:46:05;;;;;;;20.40;13.30;;;6.40;99.90;;;;;;4987790;28;20513;-59
2022/12/19 08:48:32;;;;;;;20.42;13.63;;;6.40;99.90;;;;;;4988254;28;20472;-58
2022/12/19 08:51:01;;;;;;;20.35;13.82;;;6.40;99.90;;;;;;4987524;28;20427;-59
2022/12/19 08:53:30;;;;;;;20.88;13.68;;;6.50;99.90;;;;;;5004679;28;20421;-59
2022/12/19 08:55:58;;;;;;;19.63;13.20;;;6.50;99.90;;;;;;5006792;28;20930;-60
2022/12/19 08:58:26;;;;;;;20.15;13.77;;;6.50;99.90;;;;;;5007107;28;20444;-60
2022/12/19 09:00:54;;;;;;;18.50;12.40;;;6.50;99.90;;;;;;4994789;28;20426;-60
2022/12/19 09:03:21;;;;;;;18.00;12.77;;;6.50;99.90;;;;;;5007991;28;20481;-61
2022/12/19 09:05:55;;;;;;;18.63;12.88;;;6.60;99.90;;;;;;5007208;28;20508;-61
2022/12/19 09:08:21;;;;;;;17.02;12.85;;;6.60;99.90;;;;;;5006328;28;20504;-60
2022/12/19 09:10:50;;;;;;;18.67;12.13;;;6.70;99.90;;;;;;5007296;28;20421;-60
2022/12/19 09:13:17;;;;;;;17.48;12.63;;;6.70;99.90;;;;;;5006697;28;20470;-61
2022/12/19 09:15:43;;;;;;;16.73;12.07;;;6.70;99.90;;;;;;5007369;28;20481;-61
2022/12/19 09:18:10;;;;;;;15.95;11.23;;;6.80;99.90;;;;;;5006779;28;20424;-60
2022/12/19 09:20:36;;;;;;;17.67;11.60;;;6.80;99.90;;;;;;5007710;28;20446;-60
2022/12/19 09:23:03;;;;;;;16.60;11.47;;;6.90;99.90;;;;;;5010670;28;20474;-61
2022/12/19 09:25:30;;;;;;;16.83;11.77;;;6.90;99.90;;;;;;5010198;28;20425;-65
2022/12/19 09:27:58;;;;;;;17.85;13.07;;;6.90;99.90;;;;;;5009896;28;20423;-60
2022/12/19 09:30:25;;;;;;;18.30;11.63;;;6.90;99.90;;;;;;5010310;28;20424;-60
2022/12/19 09:32:51;;;;;;;16.20;11.25;;;7.00;99.90;;;;;;5010755;28;20834;-60
2022/12/19 09:35:18;;;;;;;16.30;11.33;;;7.00;99.90;;;;;;5010437;28;21049;-60
2022/12/19 09:37:45;;;;;;;17.70;10.43;;;7.10;99.90;;;;;;5011503;28;20295;-60
2022/12/19 09:40:16;;;;;;;16.17;9.03;;;7.10;99.90;;;;;;5011463;28;20226;-60
2022/12/19 09:42:55;;;;;;;15.07;8.93;;;7.10;99.90;;;;;;5011435;28;20235;-59
2022/12/19 09:45:36;;;;;;;15.60;9.40;;;7.10;99.90;;;;;;5011661;28;20298;-58
2022/12/19 09:48:03;;;;;;;16.07;9.03;;;7.10;99.90;;;;;;5010646;28;20700;-60
2022/12/19 09:50:42;;;;;;;13.20;8.17;;;7.20;99.90;;;;;;5011918;28;20207;-60
2022/12/19 09:53:16;;;;;;;11.07;7.00;;;7.20;99.90;;;;;;5011302;28;20192;-58
2022/12/19 09:55:44;;;;;;;16.17;9.53;;;7.20;99.90;;;;;;5011179;28;20210;-60
2022/12/19 09:58:15;;;;;;;14.50;8.03;;;7.30;99.90;;;;;;5010749;28;20239;-60
2022/12/19 10:00:46;;;;;;;15.37;8.47;;;7.30;99.90;;;;;;5011906;28;20198;-62
2022/12/19 10:03:21;;;;;;;12.60;7.50;;;7.30;99.90;;;;;;5011612;28;20205;-60
2022/12/19 10:05:51;;;;;;;12.60;8.33;;;7.40;99.90;;;;;;5011207;28;20207;-62
2022/12/19 10:08:21;;;;;;;15.43;8.83;;;7.40;99.90;;;;;;5010864;28;20223;-62
2022/12/19 10:11:00;;;;;;;13.03;8.60;;;7.50;99.90;;;;;;5010837;28;20300;-62
2022/12/19 10:13:45;;;;;;;12.10;7.37;;;7.50;99.90;;;;;;5011430;28;20230;-61
2022/12/19 10:16:19;;;;;;;12.90;6.97;;;7.50;99.90;;;;;;5010195;28;20738;-62
2022/12/19 10:18:53;;;;;;;12.13;7.27;;;7.60;99.90;;;;;;5010776;28;20231;-62
2022/12/19 10:21:32;;;;;;;12.43;6.87;;;7.60;99.90;;;;;;5011133;28;20215;-64
2022/12/19 10:24:23;;;;;;;12.20;7.07;;;7.70;99.90;;;;;;5010677;28;20773;-61
2022/12/19 10:26:52;;;;;;;13.30;8.37;;;7.70;99.90;;;;;;5011237;28;20199;-60
2022/12/19 10:29:44;;;;;;;12.63;7.83;;;7.70;99.90;;;;;;5010503;28;20589;-63
2022/12/19 10:32:19;;;;;;;12.40;8.43;;;7.70;99.90;;;;;;5009521;28;20215;-58
2022/12/19 10:34:47;;;;;;;11.47;7.67;;;7.70;99.90;;;;;;5010828;28;20212;-57
2022/12/19 10:37:19;;;;;;;12.23;8.47;;;7.70;99.90;;;;;;5010371;28;20716;-60
2022/12/19 10:39:54;;;;;;;12.17;8.50;;;7.70;99.90;;;;;;5010509;28;20232;-57
2022/12/19 10:42:38;;;;;;;12.77;7.20;;;7.60;99.90;;;;;;5010296;28;20210;-57
2022/12/19 10:45:13;;;;;;;13.10;8.30;;;7.70;99.90;;;;;;5010570;28;20568;-57
2022/12/19 10:47:42;;;;;;;11.50;7.20;;;7.70;99.90;;;;;;5009966;28;20317;-62
2022/12/19 10:50:12;;;;;;;20.23;9.03;;;7.70;99.90;;;;;;5010205;28;20211;-59
2022/12/19 10:52:51;;;;;;;13.73;8.10;;;7.70;99.90;;;;;;5009623;28;20299;-60
2022/12/19 10:55:34;;;;;;;12.67;8.13;;;7.70;99.90;;;;;;5010364;28;20216;-59
2022/12/19 10:58:10;;;;;;;12.47;8.30;;;7.70;99.90;;;;;;5009515;28;20231;-64
2022/12/19 11:00:37;;;;;;;12.70;8.27;;;7.70;99.90;;;;;;5010475;28;20234;-63
2022/12/19 11:03:15;;;;;;;13.60;7.77;;;7.70;99.90;;;;;;5010139;28;20234;-63
2022/12/19 11:05:46;;;;;;;11.83;7.33;;;7.70;99.90;;;;;;5009887;28;20213;-59
2022/12/19 11:08:18;;;;;;;10.83;7.50;;;7.70;99.90;;;;;;5009559;28;20262;-62
2022/12/19 11:10:50;;;;;;;13.67;8.30;;;7.70;99.90;;;;;;5010132;28;20203;-63
2022/12/19 11:13:23;;;;;;;13.60;8.53;;;7.70;99.90;;;;;;5009847;28;20207;-64
2022/12/19 11:15:52;;;;;;;12.80;7.83;;;7.70;99.90;;;;;;5009314;28;20252;-63
2022/12/19 11:18:20;;;;;;;13.17;7.83;;;7.70;99.90;;;;;;5010008;28;20227;-63
2022/12/19 11:21:01;;;;;;;11.50;7.83;;;7.70;99.90;;;;;;5009352;28;20231;-66
2022/12/19 11:23:30;;;;;;;11.67;7.13;;;7.70;99.90;;;;;;5009365;28;20644;-66
2022/12/19 11:25:59;;;;;;;13.83;7.60;;;7.70;99.90;;;;;;5009286;28;20214;-58
2022/12/19 11:28:29;;;;;;;12.80;7.07;;;7.80;99.90;;;;;;5009405;28;20231;-61
2022/12/19 11:31:00;;;;;;;13.80;7.93;;;7.80;99.90;;;;;;5009933;28;20214;-60
2022/12/19 11:33:28;;;;;;;12.87;8.13;;;7.70;99.90;;;;;;5009175;28;20203;-60
2022/12/19 11:35:57;;;;;;;10.27;6.57;;;7.70;99.90;;;;;;5009322;28;20215;-58
2022/12/19 11:38:36;;;;;;;14.17;8.07;;;7.70;99.90;;;;;;5009146;28;20729;-60
2022/12/19 11:41:14;;;;;;;14.30;8.23;;;7.80;99.90;;;;;;5009931;28;20243;-63
2022/12/19 11:43:49;;;;;;;13.03;6.47;;;7.80;99.90;;;;;;5008146;28;20206;-63
2022/12/19 11:46:27;;;;;;;14.13;7.43;;;7.90;99.90;;;;;;5001078;28;20244;-64
2022/12/19 11:49:00;;;;;;;9.60;6.47;;;7.90;99.90;;;;;;5009567;28;20231;-64
2022/12/19 11:51:34;;;;;;;11.57;7.13;;;7.90;99.90;;;;;;5008904;28;20211;-61
2022/12/19 11:54:07;;;;;;;12.80;7.27;;;8.00;99.90;;;;;;5009091;28;20248;-58
2022/12/19 11:56:34;;;;;;;10.47;6.80;;;8.00;99.90;;;;;;5005283;28;20628;-59
2022/12/19 11:59:12;;;;;;;10.57;6.57;;;8.00;99.90;;;;;;5005553;28;20295;-60
2022/12/19 12:01:58;;;;;;;10.93;6.10;;;8.10;99.90;;;;;;5008794;28;20575;-58
2022/12/19 12:04:54;;;;;;;13.07;7.27;;;8.10;99.90;;;;;;4999473;28;20218;-59
2022/12/19 12:07:21;;;;;;;11.70;7.33;;;8.10;99.90;;;;;;5001025;28;20793;-62
2022/12/19 12:09:55;;;;;;;14.60;6.83;;;8.20;99.90;;;;;;5009244;28;20207;-66
2022/12/19 12:12:25;;;;;;;12.10;6.63;;;8.20;99.90;;;;;;5008738;28;20207;-62
2022/12/19 12:15:15;;;;;;;11.20;6.27;;;8.20;99.90;;;;;;5008908;28;20207;-62
2022/12/19 12:17:56;;;;;;;11.30;7.93;;;8.30;99.90;;;;;;5008913;28;20227;-61
2022/12/19 12:20:32;;;;;;;9.57;6.37;;;8.30;99.90;;;;;;5008687;28;20602;-63
2022/12/19 12:23:22;;;;;;;9.90;6.27;;;8.30;99.90;;;;;;5008975;28;20213;-59
2022/12/19 12:25:58;;;;;;;10.13;6.27;;;8.30;99.90;;;;;;5008718;28;20225;-59
2022/12/19 12:28:53;;;;;;;10.20;6.33;;;8.30;99.90;;;;;;5009058;28;20891;-59
2022/12/19 12:31:45;;;;;;;10.50;6.90;;;8.40;99.90;;;;;;4998199;28;20210;-57
2022/12/19 12:34:42;;;;;;;8.87;6.03;;;8.30;99.90;;;;;;5008755;28;20260;-62
2022/12/19 12:37:27;;;;;;;10.83;6.10;;;8.30;99.90;;;;;;5008282;28;20284;-64
2022/12/19 12:40:07;;;;;;;11.03;5.97;;;8.30;99.90;;;;;;5008564;28;20232;-64
2022/12/19 12:42:48;;;;;;;11.00;6.20;;;8.40;99.90;;;;;;5008207;28;20199;-63
2022/12/19 12:45:20;;;;;;;11.33;6.87;;;8.40;98.30;;;;;;5008801;28;20268;-59
2022/12/19 12:47:50;;;;;;;8.47;5.87;;;8.50;95.10;;;;;;5008066;28;20633;-61
2022/12/19 12:50:19;;;;;;;12.43;5.87;;;8.50;97.70;;;;;;5007896;28;20256;-59
2022/12/19 12:52:49;;;;;;;11.33;6.33;;;8.50;99.90;;;;;;5008240;28;20199;-62
2022/12/19 12:55:23;;;;;;;11.53;7.23;;;8.50;99.90;;;;;;4999755;28;20200;-60
2022/12/19 12:57:50;;;;;;;11.43;7.53;;;8.50;99.90;;;;;;5007702;28;20660;-60
2022/12/19 13:00:23;;;;;;;11.60;6.93;;;8.50;99.90;;;;;;5007712;28;20231;-62
2022/12/19 13:02:54;;;;;;;13.33;7.57;;;8.40;91.50;;;;;;5008486;28;20706;-61